Time;durP1;ratioP1;P1;durP2;ratioP2;P2;SDS_P1;SDS_P2;PMS_P1;PMS_P2;Temp;Humidity;BMP_temperature;BMP_pressure;BME280_temperature;BME280_humidity;BME280_pressure;Samples;Min_cycle;Max_cycle;Signal;HPM_P1;HPM_P2
2023/03/04 07:56:33;;;;;;;6.68;1.50;;;6.00;99.90;;;;;;5044642;27;1968617;-82
2023/03/04 07:58:59;;;;;;;5.60;1.60;;;5.90;99.90;;;;;;5073422;28;20135;-84
2023/03/04 08:01:27;;;;;;;10.05;2.05;;;5.70;99.90;;;;;;5053274;28;20497;-83
2023/03/04 08:03:53;;;;;;;8.43;1.63;;;6.00;99.90;;;;;;5055969;28;20058;-84
2023/03/04 08:06:20;;;;;;;8.45;1.75;;;5.80;99.90;;;;;;5086238;28;20051;-83
2023/03/04 08:08:47;;;;;;;10.65;2.00;;;6.50;99.90;;;;;;5048889;28;20041;-83
2023/03/04 08:11:16;;;;;;;5.82;1.80;;;5.90;99.90;;;;;;5017422;28;20033;-82
2023/03/04 08:13:41;;;;;;;8.13;1.80;;;6.30;99.90;;;;;;5037313;28;20044;-82
2023/03/04 08:16:07;;;;;;;10.68;2.08;;;6.00;99.90;;;;;;5003263;28;20139;-83
2023/03/04 08:18:33;;;;;;;9.00;1.80;;;6.10;99.90;;;;;;5035404;28;20043;-82
2023/03/04 08:20:59;;;;;;;10.68;2.08;;;6.10;99.90;;;;;;5020092;28;20043;-82
2023/03/04 08:23:25;;;;;;;10.40;1.88;;;6.30;99.90;;;;;;5034391;28;20041;-82
2023/03/04 08:25:51;;;;;;;8.88;2.08;;;6.20;99.90;;;;;;5017895;28;20032;-81
2023/03/04 08:28:17;;;;;;;12.85;3.17;;;6.40;99.90;;;;;;5035620;28;20039;-82
2023/03/04 08:30:43;;;;;;;22.08;8.15;;;6.30;99.90;;;;;;5032195;28;20107;-81
2023/03/04 08:33:09;;;;;;;23.05;8.27;;;6.40;99.90;;;;;;5040365;28;20451;-81
2023/03/04 08:35:39;;;;;;;19.30;7.13;;;6.30;99.90;;;;;;5043393;28;20124;-82
2023/03/04 08:38:05;;;;;;;17.55;4.95;;;6.30;99.90;;;;;;5018899;28;20061;-83
2023/03/04 08:40:31;;;;;;;12.15;3.40;;;6.30;99.90;;;;;;5035972;28;20033;-83
2023/03/04 08:42:57;;;;;;;9.85;2.42;;;6.40;99.90;;;;;;5004862;28;20124;-82
2023/03/04 08:45:22;;;;;;;7.93;1.60;;;6.40;99.90;;;;;;5014555;28;20432;-83
2023/03/04 08:47:50;;;;;;;5.95;2.22;;;6.30;99.90;;;;;;5050790;28;20102;-83
2023/03/04 08:50:16;;;;;;;7.65;1.65;;;6.30;99.90;;;;;;5018773;28;20051;-82
2023/03/04 08:52:41;;;;;;;5.57;1.75;;;6.40;99.90;;;;;;5019497;28;20077;-81
2023/03/04 08:55:07;;;;;;;4.78;1.60;;;6.50;99.90;;;;;;5050487;28;20049;-82
2023/03/04 08:57:33;;;;;;;7.88;1.58;;;6.40;99.90;;;;;;5017915;28;20045;-83
2023/03/04 08:59:59;;;;;;;9.85;1.70;;;6.40;99.90;;;;;;5032563;28;20503;-83
2023/03/04 09:02:25;;;;;;;8.75;2.08;;;7.00;99.90;;;;;;5051580;28;20078;-84
2023/03/04 09:04:50;;;;;;;9.43;1.80;;;6.50;99.90;;;;;;5034333;28;20056;-84
2023/03/04 09:07:16;;;;;;;8.68;1.85;;;6.50;99.90;;;;;;5008716;28;20155;-82
2023/03/04 09:09:42;;;;;;;7.75;1.48;;;6.60;99.90;;;;;;5020988;28;20045;-83
2023/03/04 09:12:08;;;;;;;8.45;1.48;;;6.80;99.90;;;;;;5036501;28;20477;-84
2023/03/04 09:14:34;;;;;;;12.35;2.08;;;6.70;99.90;;;;;;5032749;28;20770;-85
2023/03/04 09:17:02;;;;;;;10.05;1.85;;;6.90;99.90;;;;;;5020393;28;20124;-85
2023/03/04 09:19:27;;;;;;;14.05;2.33;;;7.20;99.90;;;;;;5028206;28;20044;-85
2023/03/04 09:21:58;;;;;;;13.93;2.10;;;7.10;99.90;;;;;;5021665;28;20040;-85
2023/03/04 09:24:25;;;;;;;16.52;1.70;;;7.10;99.90;;;;;;5020428;28;20041;-85
2023/03/04 09:26:52;;;;;;;13.27;2.00;;;7.30;99.90;;;;;;5001849;28;20076;-84
2023/03/04 09:29:19;;;;;;;14.50;2.03;;;7.30;99.90;;;;;;5009057;28;20069;-84
2023/03/04 09:31:45;;;;;;;9.60;1.90;;;7.40;99.90;;;;;;5021805;28;20040;-85
2023/03/04 09:34:10;;;;;;;18.15;2.42;;;7.40;99.90;;;;;;5055227;28;20037;-85
2023/03/04 09:36:36;;;;;;;11.68;1.70;;;7.70;99.90;;;;;;5021667;28;20049;-86
2023/03/04 09:39:03;;;;;;;13.25;2.10;;;7.70;99.90;;;;;;5037067;28;20459;-84
2023/03/04 09:41:45;;;;;;;14.20;2.55;;;7.20;99.90;;;;;;5020054;28;20040;-85
2023/03/04 09:44:29;;;;;;;17.70;2.13;;;7.20;99.90;;;;;;5020566;28;20086;-86
2023/03/04 09:47:00;;;;;;;12.45;2.40;;;7.20;99.90;;;;;;5038100;28;20106;-86
2023/03/04 09:49:26;;;;;;;11.80;2.40;;;7.20;99.90;;;;;;5020842;28;20041;-85
2023/03/04 09:52:09;;;;;;;14.60;2.17;;;7.80;99.90;;;;;;5005210;28;20058;-86
2023/03/04 09:54:56;;;;;;;17.40;3.05;;;7.40;99.90;;;;;;5020481;28;20386;-85
2023/03/04 09:57:26;;;;;;;9.48;2.13;;;7.50;99.90;;;;;;5020446;28;20052;-85
2023/03/04 09:59:55;;;;;;;10.25;2.20;;;7.50;99.90;;;;;;5055656;28;20585;-85
2023/03/04 10:03:02;;;;;;;15.20;2.20;;;7.60;99.90;;;;;;5021721;28;20076;-85
2023/03/04 10:05:31;;;;;;;12.85;2.30;;;7.70;99.90;;;;;;5020722;28;20071;-85
2023/03/04 10:08:27;;;;;;;18.90;2.78;;;8.50;99.90;;;;;;5020226;28;20041;-85
2023/03/04 10:10:55;;;;;;;15.45;2.53;;;7.80;99.90;;;;;;5018682;28;20045;-84
2023/03/04 10:13:35;;;;;;;14.27;3.15;;;7.80;99.90;;;;;;5020011;28;20087;-84
2023/03/04 10:16:04;;;;;;;14.00;2.05;;;7.80;99.90;;;;;;5036748;28;20037;-85
2023/03/04 10:18:36;;;;;;;15.63;2.78;;;7.80;99.90;;;;;;5019284;28;20045;-84
2023/03/04 10:21:25;;;;;;;14.80;2.20;;;7.80;99.90;;;;;;5036754;28;20076;-84
2023/03/04 10:23:53;;;;;;;9.38;2.42;;;7.90;99.90;;;;;;5019993;28;20037;-84
2023/03/04 10:26:21;;;;;;;14.30;2.55;;;8.00;99.90;;;;;;5004364;28;20048;-84
2023/03/04 10:28:48;;;;;;;16.75;2.50;;;8.10;99.90;;;;;;5037018;28;20068;-84
2023/03/04 10:31:27;;;;;;;12.95;2.00;;;8.30;99.90;;;;;;5020293;28;20076;-84
2023/03/04 10:33:53;;;;;;;10.15;2.10;;;8.30;99.90;;;;;;5020047;28;20424;-83
2023/03/04 10:36:32;;;;;;;11.32;2.28;;;8.30;99.90;;;;;;5019955;28;20040;-82
2023/03/04 10:39:04;;;;;;;13.25;2.35;;;8.40;99.90;;;;;;5019279;28;20052;-83
2023/03/04 10:41:31;;;;;;;11.60;2.10;;;8.30;99.90;;;;;;5036448;28;20037;-83
2023/03/04 10:44:09;;;;;;;15.07;2.65;;;8.30;99.90;;;;;;5019412;28;20037;-83
2023/03/04 10:46:45;;;;;;;15.48;3.20;;;8.70;99.90;;;;;;5019793;28;20098;-83
2023/03/04 10:49:14;;;;;;;18.00;2.60;;;8.10;99.90;;;;;;5019829;28;20075;-84
2023/03/04 10:51:49;;;;;;;13.60;2.67;;;8.10;99.90;;;;;;5021401;28;20385;-86
2023/03/04 10:54:30;;;;;;;13.05;2.80;;;7.60;99.90;;;;;;5019457;28;20045;-87
2023/03/04 10:57:14;;;;;;;11.48;2.78;;;8.00;99.90;;;;;;5020110;28;20049;-84
2023/03/04 10:59:46;;;;;;;15.18;2.40;;;7.90;99.90;;;;;;5034275;28;20551;-83
2023/03/04 11:02:26;;;;;;;10.90;2.13;;;7.90;99.90;;;;;;5036073;28;20041;-83
2023/03/04 11:05:06;;;;;;;18.58;3.08;;;8.00;99.90;;;;;;5019810;28;20045;-85
2023/03/04 11:07:43;;;;;;;11.27;2.08;;;8.10;99.90;;;;;;5019294;28;20047;-84
2023/03/04 11:10:16;;;;;;;13.65;2.15;;;8.20;99.90;;;;;;5036387;28;20064;-84
2023/03/04 11:12:54;;;;;;;13.32;2.63;;;8.20;99.90;;;;;;5018953;28;20041;-85
2023/03/04 11:15:26;;;;;;;15.30;2.20;;;8.10;99.90;;;;;;5018018;28;20029;-85
2023/03/04 11:18:04;;;;;;;13.80;2.00;;;8.10;99.90;;;;;;5037900;28;20045;-91
2023/03/04 11:20:35;;;;;;;15.30;2.10;;;8.10;99.90;;;;;;5022013;28;20469;-90
2023/03/04 11:23:05;;;;;;;11.65;2.10;;;8.10;99.90;;;;;;5039098;28;20036;-90
2023/03/04 11:25:39;;;;;;;10.55;2.28;;;8.20;99.90;;;;;;5022745;28;20075;-91
2023/03/04 11:28:21;;;;;;;9.80;1.73;;;8.30;99.90;;;;;;5014800;28;20037;-91
2023/03/04 11:31:01;;;;;;;10.85;2.30;;;8.30;99.90;;;;;;5019147;28;20045;-90
2023/03/04 11:33:34;;;;;;;7.40;2.30;;;8.30;99.90;;;;;;5041397;28;20048;-89
2023/03/04 11:36:34;;;;;;;11.13;1.60;;;8.30;99.90;;;;;;5038678;28;20044;-89
2023/03/04 11:39:04;;;;;;;8.82;1.48;;;8.20;99.90;;;;;;5041535;28;20032;-91
2023/03/04 11:41:41;;;;;;;11.48;2.20;;;8.20;99.90;;;;;;5044236;28;20068;-90
2023/03/04 11:44:08;;;;;;;12.65;2.28;;;8.20;99.90;;;;;;5023066;28;20041;-89
2023/03/04 11:46:51;;;;;;;13.80;2.60;;;8.90;99.90;;;;;;5022149;28;20043;-86
2023/03/04 11:49:38;;;;;;;12.40;1.90;;;8.30;99.90;;;;;;5030136;28;20033;-86
2023/03/04 11:52:43;;;;;;;9.40;1.50;;;8.30;99.90;;;;;;5023416;28;20068;-87
2023/03/04 11:55:21;;;;;;;20.92;3.53;;;8.40;99.90;;;;;;5027612;28;20067;-87
2023/03/04 11:58:01;;;;;;;8.85;1.98;;;8.50;99.90;;;;;;5019998;28;20044;-87
2023/03/04 12:00:39;;;;;;;10.27;1.70;;;8.60;99.90;;;;;;5035615;28;20067;-86
2023/03/04 12:03:56;;;;;;;8.60;1.73;;;8.50;99.90;;;;;;5036216;28;20036;-85
2023/03/04 12:06:49;;;;;;;12.65;1.98;;;8.30;99.90;;;;;;5020657;28;20076;-88
2023/03/04 12:09:47;;;;;;;10.27;2.22;;;8.10;99.90;;;;;;5036667;28;20079;-85
2023/03/04 12:12:42;;;;;;;11.52;2.05;;;8.00;99.90;;;;;;5037601;28;20123;-88
2023/03/04 12:15:14;;;;;;;10.48;1.98;;;8.00;99.90;;;;;;5000136;28;20053;-87
2023/03/04 12:18:17;;;;;;;8.63;1.42;;;8.00;99.90;;;;;;5019093;28;20095;-88
2023/03/04 12:20:47;;;;;;;9.45;1.70;;;8.20;99.90;;;;;;5020163;28;20130;-87
2023/03/04 12:23:31;;;;;;;9.07;2.08;;;8.30;99.90;;;;;;5020567;28;20133;-87
2023/03/04 12:26:20;;;;;;;7.95;1.58;;;8.30;99.90;;;;;;5019463;28;20041;-84
2023/03/04 12:29:03;;;;;;;11.70;1.98;;;8.50;99.90;;;;;;5019145;28;20488;-88
2023/03/04 12:31:42;;;;;;;9.38;2.13;;;9.00;99.90;;;;;;5021030;28;20044;-85
2023/03/04 12:34:27;;;;;;;10.00;1.70;;;9.40;99.90;;;;;;5034638;28;20393;-85
2023/03/04 12:37:26;;;;;;;9.77;1.80;;;9.60;99.90;;;;;;5038699;28;20045;-86
2023/03/04 12:40:05;;;;;;;9.65;1.88;;;9.60;99.90;;;;;;5027681;28;20041;-85
2023/03/04 12:43:03;;;;;;;10.95;1.70;;;9.60;99.90;;;;;;5020763;28;20041;-86
2023/03/04 12:46:03;;;;;;;10.27;2.33;;;9.50;99.90;;;;;;5022621;28;20044;-86
2023/03/04 12:48:38;;;;;;;8.52;1.92;;;9.40;99.90;;;;;;4994870;28;20084;-87
2023/03/04 12:51:44;;;;;;;11.55;1.70;;;9.40;99.90;;;;;;5010484;28;20042;-87
2023/03/04 12:54:18;;;;;;;8.67;2.10;;;9.40;99.90;;;;;;5013614;28;20099;-85
2023/03/04 12:56:48;;;;;;;12.05;2.05;;;9.50;99.90;;;;;;5018323;28;20141;-87
2023/03/04 12:59:23;;;;;;;7.57;1.67;;;9.60;99.90;;;;;;5029709;28;20444;-84
2023/03/04 13:01:55;;;;;;;19.10;2.88;;;9.60;99.90;;;;;;5027196;28;20033;-86
2023/03/04 13:04:59;;;;;;;21.20;3.25;;;9.60;99.90;;;;;;5054522;28;20485;-85
2023/03/04 13:07:53;;;;;;;10.23;2.70;;;9.50;99.90;;;;;;5035990;28;20068;-85
2023/03/04 13:10:20;;;;;;;13.52;2.53;;;9.40;99.90;;;;;;5011069;28;20060;-86
2023/03/04 13:12:57;;;;;;;17.92;3.35;;;9.20;99.90;;;;;;5022126;28;20059;-84
2023/03/04 13:15:23;;;;;;;23.77;3.35;;;9.60;99.90;;;;;;5002347;28;20549;-84
2023/03/04 13:18:02;;;;;;;8.80;1.92;;;9.00;99.90;;;;;;5021040;28;20136;-85
2023/03/04 13:20:39;;;;;;;10.23;2.28;;;8.90;99.90;;;;;;5021827;28;20056;-85
2023/03/04 13:23:08;;;;;;;6.47;1.52;;;9.00;99.90;;;;;;5020763;28;20448;-85
2023/03/04 13:25:35;;;;;;;7.43;1.60;;;9.20;99.90;;;;;;5022654;28;20037;-85
2023/03/04 13:28:14;;;;;;;8.93;2.33;;;9.30;99.90;;;;;;5024625;28;20122;-86
2023/03/04 13:30:55;;;;;;;9.25;1.52;;;9.20;99.90;;;;;;5033749;28;20043;-88
2023/03/04 13:33:21;;;;;;;9.35;2.00;;;10.00;99.90;;;;;;5021503;28;20037;-85
2023/03/04 13:36:00;;;;;;;7.80;1.85;;;10.20;99.90;;;;;;5017395;28;20481;-85
2023/03/04 13:38:26;;;;;;;7.03;2.10;;;10.00;99.90;;;;;;5030846;28;20109;-85
2023/03/04 13:41:14;;;;;;;15.35;2.70;;;9.70;99.90;;;;;;5017843;28;20068;-85
2023/03/04 13:43:53;;;;;;;10.18;1.60;;;9.40;99.90;;;;;;5015539;28;20124;-85
2023/03/04 13:46:19;;;;;;;13.68;2.17;;;8.30;99.90;;;;;;5036102;28;20493;-85
2023/03/04 13:48:53;;;;;;;10.23;2.40;;;9.00;99.90;;;;;;5030174;28;20041;-85
2023/03/04 13:51:25;;;;;;;9.98;2.20;;;8.90;99.90;;;;;;5037334;28;20045;-86
2023/03/04 13:53:57;;;;;;;11.68;2.67;;;9.00;99.90;;;;;;5033906;28;20308;-85
2023/03/04 13:56:40;;;;;;;12.98;2.35;;;9.20;99.90;;;;;;5032447;28;20057;-85
2023/03/04 13:59:41;;;;;;;12.27;2.38;;;9.40;99.90;;;;;;5016860;28;20110;-85
2023/03/04 14:02:21;;;;;;;14.18;2.90;;;9.80;99.90;;;;;;5013427;28;20095;-85
2023/03/04 14:04:53;;;;;;;7.22;2.08;;;10.10;99.90;;;;;;5021344;28;20049;-86
2023/03/04 14:07:34;;;;;;;9.02;2.50;;;10.70;99.90;;;;;;5005950;28;20033;-86
2023/03/04 14:10:03;;;;;;;11.57;2.28;;;11.10;99.90;;;;;;5012565;28;20397;-86
2023/03/04 14:12:32;;;;;;;12.90;2.25;;;10.90;99.90;;;;;;5018557;28;20485;-86
2023/03/04 14:15:22;;;;;;;13.20;2.03;;;11.30;99.90;;;;;;5034752;28;20069;-86
2023/03/04 14:17:59;;;;;;;14.73;2.72;;;10.20;99.90;;;;;;5003968;28;20547;-86
2023/03/04 14:20:47;;;;;;;10.30;2.60;;;9.90;99.90;;;;;;5005714;28;20041;-85
2023/03/04 14:23:34;;;;;;;13.98;3.60;;;9.70;99.90;;;;;;5040020;28;20497;-84
2023/03/04 14:26:12;;;;;;;9.77;2.08;;;9.50;99.90;;;;;;5019227;28;20044;-84
2023/03/04 14:28:48;;;;;;;8.90;2.45;;;9.50;99.90;;;;;;5030117;28;20127;-84
2023/03/04 14:31:19;;;;;;;11.23;2.23;;;9.50;99.90;;;;;;5031645;28;20044;-84
2023/03/04 14:34:00;;;;;;;10.75;2.30;;;9.50;99.90;;;;;;5033122;28;20132;-85
2023/03/04 14:36:30;;;;;;;11.75;2.35;;;9.50;99.90;;;;;;5046638;28;20041;-84
2023/03/04 14:39:01;;;;;;;15.75;2.38;;;9.50;99.90;;;;;;5016474;28;20071;-84
2023/03/04 14:41:34;;;;;;;11.13;2.00;;;10.10;99.90;;;;;;5022243;28;20071;-84
2023/03/04 14:44:28;;;;;;;13.63;2.50;;;9.40;99.90;;;;;;5050928;28;20064;-83
2023/03/04 14:47:05;;;;;;;15.15;2.40;;;9.30;99.90;;;;;;5028124;28;21392;-83
2023/03/04 14:49:33;;;;;;;10.02;2.83;;;9.20;99.90;;;;;;5016639;28;20125;-84
2023/03/04 14:51:59;;;;;;;12.30;2.42;;;9.00;99.90;;;;;;5033406;28;20056;-84
2023/03/04 14:54:36;;;;;;;13.27;2.22;;;9.00;99.90;;;;;;5012492;28;20033;-84
2023/03/04 14:57:28;;;;;;;10.27;1.67;;;8.90;99.90;;;;;;5033492;28;20072;-84
2023/03/04 14:59:54;;;;;;;10.25;2.58;;;8.90;99.90;;;;;;5042498;28;20037;-84
2023/03/04 15:02:34;;;;;;;14.25;2.00;;;8.90;99.90;;;;;;5033575;28;20045;-84
2023/03/04 15:05:23;;;;;;;11.20;2.05;;;8.90;99.90;;;;;;5052008;28;20103;-84
2023/03/04 15:07:52;;;;;;;7.38;1.70;;;8.90;99.90;;;;;;5047303;28;20037;-84
2023/03/04 15:10:22;;;;;;;12.23;2.30;;;8.80;99.90;;;;;;5044569;28;20041;-83
2023/03/04 15:12:54;;;;;;;7.55;1.48;;;8.70;99.90;;;;;;5034541;28;20040;-84
2023/03/04 15:15:41;;;;;;;9.27;2.10;;;8.60;99.90;;;;;;5019696;28;20476;-88
2023/03/04 15:18:19;;;;;;;11.70;1.90;;;8.50;99.90;;;;;;5034740;28;20037;-87
2023/03/04 15:20:57;;;;;;;8.32;1.80;;;8.40;99.90;;;;;;5017247;28;20138;-86
2023/03/04 15:23:24;;;;;;;11.52;1.80;;;8.30;99.90;;;;;;5015846;28;20556;-87
2023/03/04 15:25:57;;;;;;;8.65;1.90;;;8.30;99.90;;;;;;5020240;28;20094;-88
2023/03/04 15:28:24;;;;;;;11.95;2.28;;;8.30;99.90;;;;;;5016279;28;20168;-87
2023/03/04 15:30:50;;;;;;;9.95;1.77;;;8.40;99.90;;;;;;5020149;28;20052;-87
2023/03/04 15:33:15;;;;;;;14.57;2.72;;;8.50;99.90;;;;;;5034277;28;20045;-87
2023/03/04 15:35:59;;;;;;;9.43;1.98;;;8.50;99.90;;;;;;4998961;28;20048;-85
2023/03/04 15:38:26;;;;;;;9.60;2.35;;;8.50;99.90;;;;;;5030115;28;20041;-84
2023/03/04 15:40:53;;;;;;;10.90;2.35;;;7.30;99.90;;;;;;5015378;28;20065;-85
2023/03/04 15:43:20;;;;;;;11.32;2.30;;;8.60;99.90;;;;;;5015008;28;20045;-86
2023/03/04 15:45:48;;;;;;;11.93;2.40;;;8.50;99.90;;;;;;5034479;28;20037;-84
2023/03/04 15:48:16;;;;;;;9.50;2.20;;;8.50;99.90;;;;;;5020517;28;20473;-88
2023/03/04 15:50:53;;;;;;;7.72;1.80;;;8.40;99.90;;;;;;5015171;28;20056;-86
2023/03/04 15:53:35;;;;;;;15.50;2.67;;;8.30;99.90;;;;;;5036651;28;20095;-86
2023/03/04 15:56:02;;;;;;;11.57;2.30;;;8.20;99.90;;;;;;5032920;28;20049;-86
2023/03/04 15:58:31;;;;;;;11.10;2.13;;;8.20;99.90;;;;;;5017649;28;20037;-87
2023/03/04 16:00:56;;;;;;;11.68;2.13;;;8.00;99.90;;;;;;5014488;28;20037;-87
2023/03/04 16:03:22;;;;;;;9.55;2.22;;;8.00;99.90;;;;;;5025873;28;20133;-86
2023/03/04 16:05:50;;;;;;;13.25;2.30;;;8.00;99.90;;;;;;5013788;28;20111;-87
2023/03/04 16:08:19;;;;;;;14.27;2.40;;;7.90;99.90;;;;;;4998690;28;20124;-88
2023/03/04 16:10:45;;;;;;;12.93;2.67;;;7.90;99.90;;;;;;5018448;28;20041;-88
2023/03/04 16:13:17;;;;;;;10.38;2.15;;;7.40;99.90;;;;;;5038867;28;20115;-86
2023/03/04 16:15:43;;;;;;;13.82;2.72;;;7.70;99.90;;;;;;5028442;28;20041;-84
2023/03/04 16:18:10;;;;;;;19.88;3.30;;;7.60;99.90;;;;;;5032776;28;20552;-85
2023/03/04 16:20:37;;;;;;;14.68;2.78;;;7.50;99.90;;;;;;5007594;28;20045;-84
2023/03/04 16:23:04;;;;;;;14.02;2.78;;;7.30;99.90;;;;;;5019860;28;20052;-85
2023/03/04 16:25:30;;;;;;;12.50;2.70;;;7.30;99.90;;;;;;5052890;28;20049;-86
2023/03/04 16:27:57;;;;;;;12.73;2.78;;;7.20;99.90;;;;;;5001867;28;20477;-85
2023/03/04 16:30:25;;;;;;;17.25;3.05;;;7.10;99.90;;;;;;5019439;28;20069;-90
2023/03/04 16:32:51;;;;;;;14.30;3.00;;;7.00;99.90;;;;;;5006496;28;20033;-88
2023/03/04 16:35:18;;;;;;;15.20;2.80;;;7.00;99.90;;;;;;5016514;28;20052;-86
2023/03/04 16:37:44;;;;;;;15.82;3.38;;;6.90;99.90;;;;;;5025871;28;20116;-87
2023/03/04 16:40:15;;;;;;;12.93;2.97;;;6.90;99.90;;;;;;5009106;28;20038;-86
2023/03/04 16:42:41;;;;;;;16.40;3.20;;;6.90;99.90;;;;;;5033035;28;20048;-85
2023/03/04 16:45:16;;;;;;;13.52;2.63;;;6.90;99.90;;;;;;5018369;28;20051;-85
2023/03/04 16:47:42;;;;;;;13.48;2.80;;;6.80;99.90;;;;;;5039436;28;20038;-83
2023/03/04 16:50:14;;;;;;;12.38;2.67;;;6.80;99.90;;;;;;5011803;28;20038;-84
2023/03/04 16:52:42;;;;;;;11.15;2.53;;;6.90;99.90;;;;;;5012547;28;20083;-84
2023/03/04 16:55:17;;;;;;;19.92;3.92;;;6.90;99.90;;;;;;5025982;28;20046;-83
2023/03/04 16:57:43;;;;;;;12.63;2.85;;;6.90;99.90;;;;;;5024826;28;20045;-85
